Custom Search

Airport METAR Reports

 

YMAV - Avalon Airport, Australia
Distance from station: 0 0km
Updated: 16/07/2018 10:30
Overcast
Overcast
 Wind from N
Wind: N 26 km/h
Temperature: 10°C
Wind Chill: 7°C
Dew Point: 3°C
Humidity: 62%
Barometer: 1006 hPa
Clouds: Overcast
Visibility: 10 km
Cloud details: Mostly cloudy 2256 m
Overcast 2621 m
Overcast 3505 m
2018/07/16 00:30 YMAV 160030Z AUTO 36014KT 9999 // BKN074 OVC086 OVC115 10/03 Q1006
YMML - Melbourne Intl A, Australia
Distance from station: NE 50km
Updated: 16/07/2018 10:30
Clear
Clear
 Wind from N
Wind: N 48 km/h
Temperature: 9°C
Wind Chill: 4°C
Dew Point: 0°C
Humidity: 54%
Barometer: 1007 hPa
Summary: Clear
Visibility: greater than 10 km
2018/07/16 00:30 YMML 160030Z 36026KT CAVOK 09/00 Q1007 FM0030 MOD/SEV TURB BLW 5000FT
YMEN - Melbourne/Essend, Australia
Distance from station: NE 51km
Updated: 16/07/2018 10:05
Overcast
Overcast
 Wind from N
Wind: N 33 km/h, Gust: 54 km/h
Temperature: 9°C
Wind Chill: 5°C
Dew Point: 2°C
Humidity: 62%
Barometer: 1007 hPa
Clouds: Overcast
Visibility: 10 km
Cloud details: Overcast 3658 m
2018/07/16 00:05 YMEN 160005Z AUTO 36018G29KT 9999 // OVC120 09/02 Q1007
 
YWGT - Wangaratta Arp, Australia
Distance from station: NE 241km
Updated: 16/07/2018 10:00
Overcast
Overcast
 Wind from calm
Wind: Calm
Temperature: 6°C
Dew Point: 4°C
Humidity: 87%
Barometer: 1012 hPa
Clouds: Overcast
Visibility: 10 km
Cloud details: Overcast 2316 m
Overcast 2652 m
2018/07/16 00:00 YWGT 160000Z AUTO 00000KT 9999 // OVC076 OVC087 06/04 Q1012
YMAY - Albury Airport, Australia
Distance from station: NE 308km
Updated: 16/07/2018 10:00
Mostly cloudy
Mostly cloudy
 Wind from ESE
Wind: ESE 6 km/h
Temperature: 6°C
Dew Point: 5°C
Humidity: 93%
Barometer: 1013 hPa
Clouds: Mostly cloudy
Visibility: 10 km
Cloud details: Partly cloudy 1067 m
Partly cloudy 1402 m
Mostly cloudy 1554 m
2018/07/16 00:00 YMAY 160000Z AUTO 12003KT 9999 // SCT035 SCT046 BKN051 06/05 Q1013
YMTG - Mount Gambier, Australia
Distance from station: W 326km
Updated: 16/07/2018 10:00
Partly cloudy
Partly cloudy
 Wind from NNW
Wind: NNW 20 km/h
Temperature: 10°C
Wind Chill: 7°C
Dew Point: 9°C
Humidity: 94%
Barometer: 1004 hPa
Clouds: Partly cloudy
Visibility: 10 km
Cloud details: Partly cloudy 732 m
Partly cloudy 1036 m
Partly cloudy 1219 m
2018/07/16 00:00 YMTG 160000Z AUTO 34011KT 9999 // SCT024 SCT034 SCT040 10/09 Q1004
 
YNAR - Narrandera, Australia
Distance from station: NNE 413km
Updated: 16/07/2018 10:00

 Wind from NE
Wind: NE 17 km/h
Temperature: 9°C
Wind Chill: 7°C
Dew Point: 0°C
Humidity: 54%
Barometer: 1014 hPa
2018/07/16 00:00 YNAR 160000Z AUTO 04009KT //// // ////// 09/M00 Q1014
YSWG - Wagga Wagga(Cv/M, Australia
Distance from station: NE 418km
Updated: 16/07/2018 10:00
Clear
Clear
 Wind from ENE
Wind: ENE 9 km/h
Temperature: 5°C
Wind Chill: 3°C
Dew Point: 2°C
Humidity: 81%
Barometer: 1014 hPa
Summary: Clear
Visibility: greater than 10 km
2018/07/16 00:00 YSWG 160000Z 07005KT CAVOK 05/02 Q1014
YCOM - Cooma Snowy Mtns, Australia
Distance from station: ENE 441km
Updated: 16/07/2018 10:00
Overcast
Overcast
 Wind from NW
Wind: NW 9 km/h
Temperature: 7°C
Wind Chill: 6°C
Dew Point: -3°C
Humidity: 49%
Barometer: 1011 hPa
Clouds: Overcast
Visibility: 10 km
Cloud details: Overcast 2835 m
2018/07/16 00:00 YCOM 160000Z AUTO 32005KT 290V350 9999 // OVC093 07/M03 Q1011
 
YGTH - Griffith Arpt, Australia
Distance from station: NNE 444km
Updated: 16/07/2018 10:00
Overcast
Overcast
 Wind from N
Wind: N 20 km/h
Temperature: 11°C
Dew Point: -2°C
Humidity: 41%
Barometer: 1013 hPa
Clouds: Overcast
Visibility: 10 km
Cloud details: Mostly cloudy 2957 m
Overcast 3658 m
2018/07/16 00:00 YGTH 160000Z AUTO 35011KT 9999 // BKN097 OVC120 11/M02 Q1013
YMLT - Launceston Airpo, Australia
Distance from station: SSE 451km
Updated: 16/07/2018 10:30
Partly cloudy
Partly cloudy
 Wind from NNW
Wind: NNW 20 km/h
Temperature: 10°C
Wind Chill: 7°C
Dew Point: 9°C
Humidity: 94%
Barometer: 1003 hPa
Clouds: Partly cloudy
Visibility: 10 km
Cloud details: Partly cloudy 792 m
Partly cloudy 945 m
2018/07/16 00:30 YMLT 160030Z AUTO 33011KT 9999 // SCT026 SCT031 10/09 Q1003
YMIA - Mildura Arpt, Australia
Distance from station: NNW 474km
Updated: 16/07/2018 10:00
Clear
Clear
 Wind from NW
Wind: NW 22 km/h
Temperature: 14°C
Dew Point: -6°C
Humidity: 25%
Barometer: 1010 hPa
Clouds: Clear
Visibility: 10 km
2018/07/16 00:00 YMIA 160000Z AUTO 32012KT 9999 // NCD 14/M06 Q1010
 
YMER - Merimbula Arpt, Australia
Distance from station: ENE 494km
Updated: 16/07/2018 10:00
Partly cloudy
Partly cloudy
 Wind from NW
Wind: NW 11 km/h
Temperature: 13°C
Dew Point: 1°C
Humidity: 44%
Barometer: 1010 hPa
Clouds: Partly cloudy
Visibility: 10 km
Cloud details: Partly cloudy 3200 m
2018/07/16 00:00 YMER 160000Z AUTO 31006KT 250V330 9999 // SCT105 13/01 Q1010
YSCB - Canberra (civ/Mi, Australia
Distance from station: NE 518km
Updated: 16/07/2018 10:30
Clear
Clear
 Wind from S
Wind: S 6 km/h
Temperature: 2°C
Dew Point: 0°C
Humidity: 87%
Barometer: 1014 hPa
Summary: Clear
Visibility: greater than 10 km
2018/07/16 00:30 YSCB 160030Z 17003KT CAVOK 02/00 Q1014 FM0300 MOD TURB BLW 5000FT
YMHB - Hobart/Tasmania, Australia
Distance from station: SSE 590km
Updated: 16/07/2018 10:30
Mostly cloudy
Mostly cloudy
 Wind from N
Wind: N 6 km/h
Temperature: 10°C
Dew Point: 3°C
Humidity: 62%
Barometer: 1002 hPa
Clouds: Mostly cloudy
Visibility: 10 km
Cloud details: Few Clouds 762 m
Mostly cloudy 8534 m
2018/07/16 00:30 YMHB 160030Z 01003KT 9999 FEW025 BKN280 10/03 Q1002 RF00.0/000.0